To NAV CANADA Home Page Login to a new session Search on AWWS site Feedback and Comments Disclaimer Vers la page française équivalente Tips FAQ What's new on the site To the Forecasts and Observations / NOTAM section To "File a Flight Plan" website Publications and other links Update of the User's profile FIC Telephone Numbers My Weather Data Folder Route Weather Data Regional Weather Data Local Weather Data To the Forecasts and Observations / NOTAM section
Request Generated 03/06/2015 at 03:56:06 UTC . Weather information available at that time is displayed.

METAR/TAF

CAPE DORSET/NU    

SPECI CYTE 060352Z AUTO 28013KT 2 1/2SM -SN BKN020 M28/M30 A2957 RMK
SLP023=
SPECI CYTE 060337Z AUTO 28012KT 2 1/4SM HZ BKN024 M27/M30 A2958 RMK
SLP023=
SPECI CYTE 060336Z AUTO 28012KT 3SM HZ BKN024 M27/M30 A2958 RMK
SLP023=
SPECI CYTE 060312Z AUTO 29013KT 3SM HZ CLR M27/M30 A2958 RMK SLP025=
SPECI CYTE 060302Z AUTO 28011KT 5SM -SN CLR M27/M30 A2959 RMK SLP027=
METAR CYTE 060300Z AUTO 28011KT 6SM -SN CLR M27/M30 A2959 RMK SLP027=
SPECI CYTE 060253Z AUTO 28011KT 6SM -SN CLR M27/M30 A2959 RMK SLP027=
SPECI CYTE 060245Z AUTO 27011KT 4SM -SN CLR M28/M30 A2959 RMK SLP027=
SPECI CYTE 060240Z AUTO 27010KT 5SM HZ CLR M28/M31 A2959 RMK SLP027=
SPECI CYTE 060231Z AUTO 28011KT 7SM CLR M28/M31 A2959 RMK SLP028=
METAR CYTE 060200Z AUTO 23011KT 8SM -SN CLR M27/M30 A2959 RMK SLP029=
SPECI CYTE 060157Z AUTO 24009KT 6SM -SN CLR M27/M30 A2959 RMK SLP028=
SPECI CYTE 060116Z AUTO 27008KT 5SM -SN CLR M28/M30 A2959 RMK SLP030=
SPECI CYTE 060115Z AUTO 27008KT 5SM BR CLR M28/M30 A2959 RMK SLP030=
METAR CYTE 060100Z AUTO 28011KT 9SM CLR M27/M30 A2959 RMK SLP029=

TAF AMD CYTE 060042Z 0601/0613 27006KT P6SM SKC TEMPO 0601/0613 3SM
IC BR
RMK FCST BASED ON AUTO OBS. NXT FCST BY 060700Z=
Your time UTC time
Weather data provided by Environment Canada and NAV CANADA